KNUW/NUW METAR and TAF weather

Enter ICAO airport designator
Station Type Date Time Source
KNUW METAR 2021/01/22 06:56 UTC NOAA

KNUW 220656Z 00000KT 10SM SCT050 BKN085 BKN120 03/M02 A3011 RMK AO2 SLP197 T00331022


Station Type Date Time Source
KNUW Decoded METAR 2021/01/22 06:56 UTC NOAA

NAS WHIDBEY ISLAND, WA, United States (KNUW) 48-21N 122-39W 8M
Jan 22, 2021 - 01:56 AM EST / 2021.01.22 0656 UTC
Wind: Calm:0
Visibility: 10 mile(s):0
Sky conditions: mostly cloudy
Temperature: 37.9 F (3.3 C)
Dew Point: 28.0 F (-2.2 C)
Relative Humidity: 67%
Pressure (altimeter): 30.11 in. Hg (1019 hPa)
ob: KNUW 220656Z 00000KT 10SM SCT050 BKN085 BKN120 03/M02 A3011 RMK AO2 SLP197 T00331022
cycle: 7

Station Type Date Time Source
KNUW TAF 2021/01/22 07:15 UTC NOAA

TAF KNUW TAF 2207/2307 34008KT 9999 SCT070 BKN085 BKN120 640309 641204 QNH3005INS
FM221900 34009KT 9999 FEW040 SCT250 600000 QNH3010INS T02/2213Z T06/2223Z FS30173

Example: see airport list